Latest Weather Observations for Weipa

IDQ60801

Issued at 5:42 pm EST Saturday 20 July 2019 (issued every 10 minutes, with the page automatically refreshed every 10 minutes)

About weather observations | Map of weather stations | Latest weather observations for QLD | Other Formats
Station Details ID: 027045 Name: WEIPA AERO Lat: -12.68 Lon: 141.92 Height: 17.96 m
Data from the previous 72 hours. | See also: Recent months at Weipa
Date/Time
EST
Temp
°C
App
Temp
°C
Dew
Point
°C
Rel
Hum
%
Delta-T
°C
Wind Press
QNH
hPa
Press
MSL
hPa
Rain since
9am
mm
Dir  Spd
km/h
Gust
km/h
Spd
kts
Gust
kts
20/05:30pm 28.5 25.9 13.2 39 9.0 E 19 24 10 13 1012.7 1012.6 0.0
20/05:00pm 29.5 27.7 13.3 37 9.6 ENE 15 22 8 12 1012.4 1012.3 0.0
20/04:30pm 29.5 27.2 12.9 36 9.8 ENE 17 24 9 13 1012.2 1012.1 0.0
20/04:00pm 29.4 27.3 12.3 34 10.0 SE 15 28 8 15 1012.1 1012.0 0.0
20/03:30pm 29.6 27.3 12.9 35 9.9 E 17 24 9 13 1012.2 1012.1 0.0
20/03:00pm 29.7 27.2 13.5 37 9.7 E 19 30 10 16 1012.3 1012.2 0.0
20/02:30pm 29.5 26.4 13.3 37 9.6 E 22 33 12 18 1012.6 1012.5 0.0
20/02:00pm 29.7 27.2 13.5 37 9.7 ESE 19 24 10 13 1013.1 1013.0 0.0
20/01:30pm 29.3 27.8 14.3 40 9.1 ESE 15 24 8 13 1013.7 1013.6 0.0
20/01:00pm 28.5 25.9 13.2 39 9.0 ESE 19 30 10 16 1014.3 1014.2 0.0
20/12:30pm 28.0 24.9 13.5 41 8.6 SE 22 35 12 19 1014.7 1014.6 0.0
20/12:00pm 27.2 24.4 14.2 44 7.8 SE 22 30 12 16 1015.2 1015.1 0.0
20/11:30am 26.4 23.8 14.8 49 7.0 E 22 33 12 18 1015.7 1015.6 0.0
20/11:00am 25.8 23.1 15.5 53 6.2 E 24 32 13 17 1016.2 1016.1 0.0
20/10:30am 24.8 23.1 16.2 58 5.3 ESE 20 28 11 15 1016.4 1016.3 0.0
20/10:00am 23.2 21.4 16.0 64 4.4 E 20 26 11 14 1016.5 1016.4 0.0
20/09:30am 22.2 21.2 16.5 70 3.5 ESE 17 22 9 12 1016.4 1016.3 0.0
20/09:00am 20.9 19.4 16.3 75 2.8 ESE 19 24 10 13 1016.3 1016.2 0.0
20/08:30am 19.7 20.2 16.5 82 1.9 SE 9 13 5 7 1016.1 1016.0 0.0
20/08:00am 18.1 18.4 16.1 88 1.2 SE 9 11 5 6 1016.0 1015.9 0.0
20/07:30am 16.7 17.4 15.6 93 0.6 SSE 6 7 3 4 1015.8 1015.7 0.0
20/07:00am 16.1 16.4 15.1 94 0.6 SSE 7 7 4 4 1015.3 1015.2 0.0
20/06:30am 16.1 16.4 15.1 94 0.6 SSE 7 9 4 5 1014.9 1014.8 0.0
20/06:00am 15.9 16.3 14.8 93 0.6 S 6 9 3 5 1014.7 1014.6 0.0
20/05:30am 16.0 16.4 14.7 92 0.7 S 6 7 3 4 1014.4 1014.3 0.0
20/05:00am 16.3 16.6 15.0 92 0.8 S 7 9 4 5 1014.2 1014.1 0.0
20/04:30am 16.5 16.8 15.0 91 0.9 SSE 7 7 4 4 1014.1 1014.0 0.0
20/04:00am 16.8 16.8 15.3 91 0.9 SSE 9 9 5 5 1014.1 1014.0 0.0
20/03:30am 17.3 18.0 15.6 90 1.0 SSE 6 9 3 5 1014.0 1013.9 0.0
20/03:00am 17.5 17.7 15.7 89 1.1 SE 9 11 5 6 1014.1 1014.0 0.0
20/02:30am 17.5 17.9 15.3 87 1.3 SE 7 7 4 4 1014.4 1014.3 0.0
20/02:00am 17.9 18.3 15.3 85 1.5 SE 7 7 4 4 1014.6 1014.5 0.0
20/01:30am 18.4 18.9 15.6 84 1.7 SE 7 9 4 5 1014.8 1014.7 0.0
20/01:00am 18.9 19.1 15.8 82 1.8 SE 9 11 5 6 1015.2 1015.1 0.0
20/12:30am 19.4 19.5 15.5 78 2.3 SE 9 9 5 5 1015.2 1015.1 0.0
20/12:00am 20.4 19.9 15.8 75 2.7 ESE 13 15 7 8 1015.2 1015.1 0.0
 
Date/Time
EST
Temp
°C
App
Temp
°C
Dew
Point
°C
Rel
Hum
%
Delta-T
°C
Wind Press
QNH
hPa
Press
MSL
hPa
Rain since
9am
mm
Dir  Spd
km/h
Gust
km/h
Spd
kts
Gust
kts
19/11:30pm 20.7 20.5 15.7 73 3.0 E 11 15 6 8 1015.3 1015.2 0.0
19/11:00pm 21.1 20.9 15.6 71 3.3 E 11 17 6 9 1015.3 1015.2 0.0
19/10:30pm 21.5 20.9 15.6 69 3.5 E 13 17 7 9 1015.3 1015.2 0.0
19/10:00pm 22.1 21.5 15.7 67 3.8 ENE 13 15 7 8 1015.2 1015.1 0.0
19/09:30pm 22.7 21.3 15.5 64 4.3 ENE 17 20 9 11 1015.0 1014.9 0.0
19/09:00pm 23.2 21.4 15.5 62 4.6 E 19 24 10 13 1014.9 1014.8 0.0
19/08:30pm 23.7 22.4 15.7 61 4.8 E 17 20 9 11 1014.7 1014.6 0.0
19/08:00pm 24.3 23.0 15.8 59 5.2 E 17 20 9 11 1014.2 1014.1 0.0
19/07:30pm 25.1 24.5 15.7 56 5.7 ENE 13 17 7 9 1013.8 1013.7 0.0
19/07:00pm 25.7 24.7 15.7 54 6.1 ENE 15 20 8 11 1013.4 1013.3 0.0
19/06:30pm 26.4 25.7 15.4 50 6.7 ENE 13 17 7 9 1012.9 1012.8 0.0
19/06:00pm 27.7 26.9 15.0 45 7.7 ENE 13 19 7 10 1012.7 1012.6 0.0
19/05:30pm 29.2 27.7 14.2 40 9.0 E 15 22 8 12 1012.2 1012.1 0.0
19/05:00pm 30.0 27.7 14.1 37 9.6 E 19 26 10 14 1011.9 1011.8 0.0
19/04:30pm 30.0 27.6 13.7 37 9.8 ESE 19 24 10 13 1011.7 1011.6 0.0
19/04:00pm 30.2 28.2 13.9 37 9.8 E 17 24 9 13 1011.7 1011.6 0.0
19/03:30pm 30.3 28.5 14.4 38 9.6 E 17 32 9 17 1011.7 1011.6 0.0
19/03:00pm 29.9 27.1 14.4 38 9.4 ESE 22 32 12 17 1011.9 1011.8 0.0
19/02:30pm 29.6 27.1 14.2 39 9.3 E 20 35 11 19 1012.1 1012.0 0.0
19/02:00pm 29.5 27.0 14.1 39 9.3 ESE 20 32 11 17 1012.6 1012.5 0.0
19/01:30pm 29.4 26.8 14.8 41 8.9 ESE 22 30 12 16 1012.9 1012.8 0.0
19/01:00pm 29.0 26.4 14.8 42 8.6 SE 22 33 12 18 1013.4 1013.3 0.0
19/12:30pm 28.6 24.6 14.1 41 8.7 ESE 28 39 15 21 1013.9 1013.8 0.0
19/12:00pm 28.0 25.7 15.6 46 7.6 ENE 22 32 12 17 1014.3 1014.2 0.0
19/11:30am 27.5 25.0 16.1 49 7.0 E 24 32 13 17 1014.8 1014.7 0.0
19/11:00am 26.7 24.5 16.9 55 6.1 E 24 35 13 19 1015.2 1015.1 0.0
19/10:30am 26.4 23.2 16.3 53 6.2 E 28 35 15 19 1015.4 1015.3 0.0
19/10:00am 25.0 23.4 17.5 63 4.7 ESE 22 33 12 18 1015.7 1015.6 0.0
19/09:30am 23.5 21.7 17.0 67 4.0 ESE 22 32 12 17 1015.9 1015.8 0.0
19/09:00am 22.3 20.9 17.0 72 3.2 ESE 20 26 11 14 1015.8 1015.7 0.0
19/08:30am 21.1 20.0 17.3 79 2.3 ESE 19 22 10 12 1015.6 1015.5 0.0
19/08:00am 19.8 18.9 16.8 83 1.8 ESE 17 20 9 11 1015.3 1015.2 0.0
19/07:30am 18.8 18.6 16.6 87 1.3 ESE 13 15 7 8 1015.2 1015.1 0.0
19/07:00am 18.4 17.7 16.4 88 1.2 ESE 15 19 8 10 1014.9 1014.8 0.0
19/06:30am 18.7 17.7 16.5 87 1.3 ESE 17 22 9 12 1014.6 1014.5 0.0
19/06:00am 18.6 18.4 16.6 88 1.2 ESE 13 17 7 9 1014.4 1014.3 0.0
19/05:30am 18.6 18.7 16.4 87 1.3 ESE 11 15 6 8 1014.5 1014.4 0.0
19/05:00am 18.8 18.6 16.6 87 1.3 ESE 13 17 7 9 1014.3 1014.2 0.0
19/04:30am 18.8 18.1 16.4 86 1.4 SE 15 19 8 10 1014.3 1014.2 0.0
19/04:00am 18.8 18.1 16.4 86 1.4 ESE 15 17 8 9 1014.4 1014.3 0.0
19/03:30am 18.8 18.6 16.6 87 1.3 ESE 13 15 7 8 1014.5 1014.4 0.0
19/03:00am 18.6 18.7 16.4 87 1.3 ESE 11 13 6 7 1014.4 1014.3 0.0
19/02:30am 19.0 19.2 16.8 87 1.3 ESE 11 15 6 8 1014.5 1014.4 0.0
19/02:00am 19.2 19.0 16.8 86 1.4 ESE 13 15 7 8 1014.6 1014.5 0.0
19/01:30am 19.3 19.1 16.7 85 1.6 ESE 13 15 7 8 1014.6 1014.5 0.0
19/01:00am 19.7 19.5 16.7 83 1.8 ESE 13 17 7 9 1014.7 1014.6 0.0
19/12:30am 20.0 19.8 16.8 82 1.9 ESE 13 15 7 8 1014.9 1014.8 0.0
19/12:00am 20.2 20.3 16.6 80 2.2 ESE 11 13 6 7 1015.0 1014.9 0.0
 
Date/Time
EST
Temp
°C
App
Temp
°C
Dew
Point
°C
Rel
Hum
%
Delta-T
°C
Wind Press
QNH
hPa
Press
MSL
hPa
Rain since
9am
mm
Dir  Spd
km/h
Gust
km/h
Spd
kts
Gust
kts
18/11:30pm 20.4 20.5 16.4 78 2.4 E 11 13 6 7 1015.0 1014.9 0.0
18/11:00pm 20.9 20.9 16.3 75 2.8 ESE 11 13 6 7 1015.1 1015.0 0.0
18/10:30pm 21.6 21.2 16.3 72 3.2 ESE 13 15 7 8 1015.2 1015.1 0.0
18/10:00pm 22.0 21.6 16.3 70 3.4 E 13 19 7 10 1015.1 1015.0 0.0
18/09:30pm 22.5 21.7 16.1 67 3.9 E 15 19 8 10 1014.8 1014.7 0.0
18/09:00pm 23.0 22.2 16.1 65 4.2 E 15 20 8 11 1014.5 1014.4 0.0
18/08:30pm 23.2 22.7 16.0 64 4.4 ESE 13 15 7 8 1014.2 1014.1 0.0
18/08:00pm 23.8 23.3 15.8 61 4.8 E 13 15 7 8 1013.9 1013.8 0.0
18/07:30pm 24.4 23.9 15.9 59 5.2 E 13 15 7 8 1013.4 1013.3 0.0
18/07:00pm 25.3 24.7 15.6 55 5.9 E 13 15 7 8 1013.0 1012.9 0.0
18/06:30pm 26.2 24.7 15.3 51 6.6 ESE 17 22 9 12 1012.6 1012.5 0.0
18/06:00pm 27.1 25.0 15.1 47 7.3 ESE 20 26 11 14 1012.2 1012.1 0.0
18/05:30pm 28.0 25.8 15.0 45 7.9 E 20 26 11 14 1011.9 1011.8 0.0
18/05:00pm 27.7 25.8 15.7 48 7.4 ESE 20 26 11 14 1011.8 1011.7 0.0
18/04:30pm 28.9 27.0 15.1 43 8.4 ESE 19 24 10 13 1011.6 1011.5 0.0
18/04:00pm 29.1 26.9 14.9 42 8.7 ESE 20 30 11 16 1011.4 1011.3 0.0
18/03:30pm 29.4 28.4 15.5 43 8.5 ESE 15 24 8 13 1011.3 1011.2 0.0
18/03:00pm 28.6 26.6 15.5 45 8.0 ESE 20 33 11 18 1011.4 1011.3 0.0
18/02:30pm 28.0 25.7 15.6 46 7.6 SE 22 30 12 16 1011.8 1011.7 0.0
18/02:00pm 28.2 26.6 16.5 49 7.3 SE 20 28 11 15 1012.3 1012.2 0.0
18/01:30pm 27.6 26.2 16.9 52 6.7 ESE 20 28 11 15 1012.8 1012.7 0.0
18/01:00pm 27.5 25.6 16.8 52 6.7 E 22 32 12 17 1013.2 1013.1 0.0
18/12:30pm 27.0 25.4 16.6 53 6.4 ESE 20 30 11 16 1013.5 1013.4 0.0
18/12:00pm 27.5 24.6 17.1 53 6.5 E 28 37 15 20 1014.0 1013.9 0.0
18/11:30am 27.1 25.6 17.6 56 6.0 ESE 22 30 12 16 1014.5 1014.4 0.0
18/11:00am 26.4 24.2 16.9 56 5.9 ESE 24 32 13 17 1014.8 1014.7 0.0
18/10:30am 25.7 23.7 17.4 60 5.2 SE 24 32 13 17 1015.1 1015.0 0.0
18/10:00am 24.3 22.1 16.8 63 4.6 ESE 24 33 13 18 1015.4 1015.3 0.0
18/09:30am 23.9 21.5 17.4 67 4.0 ESE 26 33 14 18 1015.5 1015.4 0.0
18/09:00am 22.8 21.1 17.3 71 3.4 ESE 22 28 12 15 1015.3 1015.2 0.0
18/08:30am 21.7 20.3 17.1 75 2.8 SE 20 32 11 17 1015.0 1014.9 0.0
18/08:00am 20.6 19.8 17.0 80 2.2 SE 17 24 9 13 1014.7 1014.6 0.0
18/07:30am 19.4 18.5 16.8 85 1.6 ESE 17 24 9 13 1014.4 1014.3 0.0
18/07:00am 18.7 17.7 16.5 87 1.3 ESE 17 20 9 11 1014.0 1013.9 0.0
18/06:30am 18.5 18.1 16.3 87 1.3 ESE 13 15 7 8 1013.8 1013.7 0.0
18/06:00am 18.7 18.0 16.5 87 1.3 ESE 15 17 8 9 1013.6 1013.5 0.0
18/05:30am 18.7 18.7 16.3 86 1.4 ESE 11 15 6 8 1013.6 1013.5 0.0
18/05:00am 19.0 18.8 16.6 86 1.4 SE 13 15 7 8 1013.5 1013.4 0.0
18/04:30am 19.1 19.2 16.5 85 1.6 SE 11 13 6 7 1013.3 1013.2 0.0
18/04:00am 19.6 19.0 16.6 83 1.8 ESE 15 17 8 9 1013.2 1013.1 0.0
18/03:30am 19.9 19.2 16.5 81 2.0 SE 15 20 8 11 1013.3 1013.2 0.0
18/03:00am 20.3 19.7 16.7 80 2.2 SE 15 20 8 11 1013.5 1013.4 0.0
18/02:30am 20.3 19.7 16.7 80 2.2 SE 15 19 8 10 1013.8 1013.7 0.0
18/02:00am 20.4 19.9 16.8 80 2.2 SE 15 20 8 11 1013.9 1013.8 0.0
18/01:30am 20.6 20.1 17.0 80 2.2 SE 15 20 8 11 1014.0 1013.9 0.0
18/01:00am 20.5 20.4 16.9 80 2.2 SE 13 19 7 10 1014.1 1014.0 0.0
18/12:30am 20.7 20.8 16.5 77 2.5 SE 11 15 6 8 1014.2 1014.1 0.0
18/12:00am 21.2 21.0 16.8 76 2.7 SE 13 20 7 11 1014.4 1014.3 0.0
 
Date/Time
EST
Temp
°C
App
Temp
°C
Dew
Point
°C
Rel
Hum
%
Delta-T
°C
Wind Press
QNH
hPa
Press
MSL
hPa
Rain since
9am
mm
Dir  Spd
km/h
Gust
km/h
Spd
kts
Gust
kts
17/11:30pm 21.4 21.2 16.6 74 2.9 ESE 13 17 7 9 1014.6 1014.5 0.0
17/11:00pm 21.7 21.0 16.4 72 3.2 SE 15 19 8 10 1014.7 1014.6 0.0
17/10:30pm 21.7 21.4 16.4 72 3.2 ESE 13 17 7 9 1014.7 1014.6 0.0
17/10:00pm 21.9 21.8 16.0 69 3.6 ESE 11 15 6 8 1014.7 1014.6 0.0
17/09:30pm 22.5 21.2 15.8 66 4.0 ESE 17 19 9 10 1014.7 1014.6 0.0
17/09:00pm 22.7 22.4 15.5 64 4.3 SE 11 15 6 8 1014.5 1014.4 0.0
17/08:30pm 23.6 22.1 15.4 60 4.9 SE 17 22 9 12 1014.3 1014.2 0.0
17/08:00pm 24.1 23.3 15.1 57 5.4 SE 13 17 7 9 1014.0 1013.9 0.0
17/07:30pm 25.0 22.9 14.8 53 6.1 ESE 19 24 10 13 1013.4 1013.3 0.0
17/07:00pm 25.5 23.8 14.6 51 6.5 ESE 17 20 9 11 1012.9 1012.8 0.0
17/06:30pm 26.1 24.7 14.6 49 6.9 ESE 15 20 8 11 1012.6 1012.5 0.0
17/06:00pm 27.1 25.7 14.5 46 7.6 E 15 20 8 11 1012.1 1012.0 0.0

Other formats

Comma delimited format used in spreadsheet applications
http://www.bom.gov.au/fwo/IDQ60801/IDQ60801.94170.axf

JavaScript Object Notation format (JSON) in row-major order
http://www.bom.gov.au/fwo/IDQ60801/IDQ60801.94170.json

Data quality

Most of these data are generated automatically and are frequently updated. Quality checks on data are not normally performed. It is possible for incorrect values to appear. Refer to information at About Latest Weather Observations and please check the disclaimer before using these data.